sensor_id;sensor_type;location;lat;lon;timestamp;pressure;altitude;pressure_sealevel;temperature;humidity
64713;BME280;51140;45.340;5.980;2023-08-06T00:00:49;98041.19;;;18.21;58.66
64713;BME280;51140;45.340;5.980;2023-08-06T00:03:15;98049.09;;;18.09;59.22
64713;BME280;51140;45.340;5.980;2023-08-06T00:05:43;98019.22;;;18.19;57.90
64713;BME280;51140;45.340;5.980;2023-08-06T00:08:08;98062.56;;;18.26;55.63
64713;BME280;51140;45.340;5.980;2023-08-06T00:10:34;98087.69;;;18.47;53.67
64713;BME280;51140;45.340;5.980;2023-08-06T00:12:59;98061.94;;;18.55;54.16
64713;BME280;51140;45.340;5.980;2023-08-06T00:15:25;97988.75;;;18.23;57.60
64713;BME280;51140;45.340;5.980;2023-08-06T00:17:50;98000.25;;;18.07;58.09
64713;BME280;51140;45.340;5.980;2023-08-06T00:20:15;98039.47;;;18.34;55.74
64713;BME280;51140;45.340;5.980;2023-08-06T00:22:41;98012.13;;;18.32;58.99
64713;BME280;51140;45.340;5.980;2023-08-06T00:25:06;98043.41;;;18.02;57.59
64713;BME280;51140;45.340;5.980;2023-08-06T00:27:32;98033.63;;;18.23;57.51
64713;BME280;51140;45.340;5.980;2023-08-06T00:29:58;98037.25;;;18.18;59.07
64713;BME280;51140;45.340;5.980;2023-08-06T00:32:24;98028.88;;;18.03;61.75
64713;BME280;51140;45.340;5.980;2023-08-06T00:34:49;98042.44;;;17.89;63.34
64713;BME280;51140;45.340;5.980;2023-08-06T00:37:16;98036.88;;;17.77;62.82
64713;BME280;51140;45.340;5.980;2023-08-06T00:39:42;98039.75;;;17.81;60.87
64713;BME280;51140;45.340;5.980;2023-08-06T00:42:07;98027.69;;;17.69;62.73
64713;BME280;51140;45.340;5.980;2023-08-06T00:44:33;98045.63;;;17.52;62.72
64713;BME280;51140;45.340;5.980;2023-08-06T00:46:58;98046.41;;;17.52;64.16
64713;BME280;51140;45.340;5.980;2023-08-06T00:49:24;98050.22;;;17.51;63.32
64713;BME280;51140;45.340;5.980;2023-08-06T00:51:49;98046.81;;;17.29;63.53
64713;BME280;51140;45.340;5.980;2023-08-06T00:54:15;98043.34;;;17.28;64.67
64713;BME280;51140;45.340;5.980;2023-08-06T00:56:42;98038.00;;;17.37;64.18
64713;BME280;51140;45.340;5.980;2023-08-06T00:59:07;98035.19;;;17.50;63.47
64713;BME280;51140;45.340;5.980;2023-08-06T01:01:34;98024.88;;;17.66;62.69
64713;BME280;51140;45.340;5.980;2023-08-06T01:04:00;98031.81;;;17.76;58.75
64713;BME280;51140;45.340;5.980;2023-08-06T01:06:43;98050.00;;;17.87;57.36
64713;BME280;51140;45.340;5.980;2023-08-06T01:12:09;98021.03;;;17.58;60.79
64713;BME280;51140;45.340;5.980;2023-08-06T01:17:17;98025.84;;;17.87;65.22
64713;BME280;51140;45.340;5.980;2023-08-06T01:19:42;98033.28;;;17.99;64.52
64713;BME280;51140;45.340;5.980;2023-08-06T01:22:08;98041.31;;;17.82;62.87
64713;BME280;51140;45.340;5.980;2023-08-06T01:24:33;98041.09;;;17.61;63.67
64713;BME280;51140;45.340;5.980;2023-08-06T01:27:16;98056.75;;;17.28;65.24
64713;BME280;51140;45.340;5.980;2023-08-06T01:29:49;98059.31;;;17.42;64.46
64713;BME280;51140;45.340;5.980;2023-08-06T01:32:20;98059.91;;;17.69;63.03
64713;BME280;51140;45.340;5.980;2023-08-06T01:34:47;98058.84;;;17.88;63.00
64713;BME280;51140;45.340;5.980;2023-08-06T01:37:14;98064.72;;;17.98;62.43
64713;BME280;51140;45.340;5.980;2023-08-06T01:39:42;98056.03;;;17.45;64.76
64713;BME280;51140;45.340;5.980;2023-08-06T01:42:08;98052.41;;;17.49;64.75
64713;BME280;51140;45.340;5.980;2023-08-06T01:44:33;98055.09;;;17.49;64.15
64713;BME280;51140;45.340;5.980;2023-08-06T01:46:59;98058.00;;;17.61;61.09
64713;BME280;51140;45.340;5.980;2023-08-06T01:49:24;98039.13;;;17.44;64.80
64713;BME280;51140;45.340;5.980;2023-08-06T01:51:49;98053.47;;;17.40;62.70
64713;BME280;51140;45.340;5.980;2023-08-06T01:54:15;98038.19;;;17.40;63.44
64713;BME280;51140;45.340;5.980;2023-08-06T01:56:40;98054.38;;;17.57;59.59
64713;BME280;51140;45.340;5.980;2023-08-06T01:59:05;98022.97;;;17.75;59.81
64713;BME280;51140;45.340;5.980;2023-08-06T02:01:31;98059.63;;;17.80;57.86
64713;BME280;51140;45.340;5.980;2023-08-06T02:03:56;98043.72;;;17.92;59.09
64713;BME280;51140;45.340;5.980;2023-08-06T02:06:22;98029.47;;;17.83;60.37
64713;BME280;51140;45.340;5.980;2023-08-06T02:08:47;98020.28;;;17.84;59.92
64713;BME280;51140;45.340;5.980;2023-08-06T02:11:12;98004.50;;;17.82;59.69
64713;BME280;51140;45.340;5.980;2023-08-06T02:13:38;98009.25;;;17.85;62.94
64713;BME280;51140;45.340;5.980;2023-08-06T02:16:03;98029.13;;;17.76;64.98
64713;BME280;51140;45.340;5.980;2023-08-06T02:18:28;98036.78;;;17.51;64.84
64713;BME280;51140;45.340;5.980;2023-08-06T02:20:58;98026.63;;;17.31;65.66
64713;BME280;51140;45.340;5.980;2023-08-06T02:23:24;98016.66;;;17.23;65.58
64713;BME280;51140;45.340;5.980;2023-08-06T02:26:00;98005.13;;;17.23;65.04
64713;BME280;51140;45.340;5.980;2023-08-06T02:28:26;98014.00;;;17.32;65.76
64713;BME280;51140;45.340;5.980;2023-08-06T02:30:51;98012.84;;;17.24;65.77
64713;BME280;51140;45.340;5.980;2023-08-06T02:33:17;98028.78;;;16.90;65.84
64713;BME280;51140;45.340;5.980;2023-08-06T02:35:42;98016.63;;;17.14;67.45
64713;BME280;51140;45.340;5.980;2023-08-06T02:38:07;98018.97;;;17.55;66.22
64713;BME280;51140;45.340;5.980;2023-08-06T02:40:33;98020.09;;;17.15;66.98
64713;BME280;51140;45.340;5.980;2023-08-06T02:42:58;98030.50;;;16.86;67.67
64713;BME280;51140;45.340;5.980;2023-08-06T02:45:23;98024.78;;;16.79;67.44
64713;BME280;51140;45.340;5.980;2023-08-06T02:47:49;98032.31;;;16.99;66.96
64713;BME280;51140;45.340;5.980;2023-08-06T02:50:14;98031.81;;;17.28;64.13
64713;BME280;51140;45.340;5.980;2023-08-06T02:52:39;98042.59;;;17.05;63.77
64713;BME280;51140;45.340;5.980;2023-08-06T02:55:06;98040.75;;;17.14;61.54
64713;BME280;51140;45.340;5.980;2023-08-06T02:57:31;98024.72;;;17.01;62.21
64713;BME280;51140;45.340;5.980;2023-08-06T02:59:57;98035.91;;;17.25;61.17
64713;BME280;51140;45.340;5.980;2023-08-06T03:02:22;98037.41;;;17.09;63.96
64713;BME280;51140;45.340;5.980;2023-08-06T03:04:48;98031.66;;;17.33;63.00
64713;BME280;51140;45.340;5.980;2023-08-06T03:07:13;98032.28;;;17.30;61.56
64713;BME280;51140;45.340;5.980;2023-08-06T03:09:38;98050.03;;;17.48;58.79
64713;BME280;51140;45.340;5.980;2023-08-06T03:12:04;98021.66;;;17.55;62.48
64713;BME280;51140;45.340;5.980;2023-08-06T03:14:30;98032.59;;;17.67;62.59
64713;BME280;51140;45.340;5.980;2023-08-06T03:16:55;98042.09;;;17.34;65.18
64713;BME280;51140;45.340;5.980;2023-08-06T03:19:20;98046.53;;;17.39;64.89
64713;BME280;51140;45.340;5.980;2023-08-06T03:21:46;98052.53;;;17.05;65.55
64713;BME280;51140;45.340;5.980;2023-08-06T03:24:13;98053.31;;;17.05;65.59
64713;BME280;51140;45.340;5.980;2023-08-06T03:26:38;98040.78;;;17.23;65.24
64713;BME280;51140;45.340;5.980;2023-08-06T03:29:04;98048.53;;;16.94;67.16
64713;BME280;51140;45.340;5.980;2023-08-06T03:31:29;98035.44;;;17.23;63.63
64713;BME280;51140;45.340;5.980;2023-08-06T03:33:54;98028.34;;;16.96;65.38
64713;BME280;51140;45.340;5.980;2023-08-06T03:36:20;98030.97;;;16.88;64.54
64713;BME280;51140;45.340;5.980;2023-08-06T03:38:45;98017.84;;;16.78;66.54
64713;BME280;51140;45.340;5.980;2023-08-06T03:41:10;98026.47;;;16.52;66.25
64713;BME280;51140;45.340;5.980;2023-08-06T03:43:36;98024.19;;;16.59;65.71
64713;BME280;51140;45.340;5.980;2023-08-06T03:46:01;98033.38;;;16.89;65.16
64713;BME280;51140;45.340;5.980;2023-08-06T03:48:26;98031.91;;;16.83;65.77
64713;BME280;51140;45.340;5.980;2023-08-06T03:50:52;98035.56;;;16.87;65.55
64713;BME280;51140;45.340;5.980;2023-08-06T03:53:17;98028.09;;;17.06;65.70
64713;BME280;51140;45.340;5.980;2023-08-06T03:55:42;98029.09;;;16.88;65.59
64713;BME280;51140;45.340;5.980;2023-08-06T03:58:08;98032.47;;;16.72;64.96
64713;BME280;51140;45.340;5.980;2023-08-06T04:00:33;98024.31;;;16.77;63.50
64713;BME280;51140;45.340;5.980;2023-08-06T04:02:58;98046.81;;;16.98;62.92
64713;BME280;51140;45.340;5.980;2023-08-06T04:05:24;98040.34;;;16.68;65.43
64713;BME280;51140;45.340;5.980;2023-08-06T04:07:49;98029.03;;;16.35;64.03
64713;BME280;51140;45.340;5.980;2023-08-06T04:10:14;98027.59;;;16.29;62.93
64713;BME280;51140;45.340;5.980;2023-08-06T04:12:40;98027.13;;;16.72;65.12
64713;BME280;51140;45.340;5.980;2023-08-06T04:15:06;98029.28;;;16.92;66.31
64713;BME280;51140;45.340;5.980;2023-08-06T04:17:31;98033.88;;;16.69;65.11
64713;BME280;51140;45.340;5.980;2023-08-06T04:19:57;98027.00;;;16.54;64.39
64713;BME280;51140;45.340;5.980;2023-08-06T04:22:25;98025.66;;;16.96;64.16
64713;BME280;51140;45.340;5.980;2023-08-06T04:24:51;98038.59;;;17.25;63.31
64713;BME280;51140;45.340;5.980;2023-08-06T04:27:18;98048.03;;;17.23;64.05
64713;BME280;51140;45.340;5.980;2023-08-06T04:29:44;98049.47;;;17.20;63.44
64713;BME280;51140;45.340;5.980;2023-08-06T04:32:10;98063.13;;;16.57;63.88
64713;BME280;51140;45.340;5.980;2023-08-06T04:34:36;98061.75;;;16.46;66.10
64713;BME280;51140;45.340;5.980;2023-08-06T04:37:03;98075.47;;;16.31;66.59
64713;BME280;51140;45.340;5.980;2023-08-06T04:39:29;98074.16;;;16.42;66.02
64713;BME280;51140;45.340;5.980;2023-08-06T04:41:55;98069.25;;;16.80;65.07
64713;BME280;51140;45.340;5.980;2023-08-06T04:44:21;98078.84;;;16.72;66.27
64713;BME280;51140;45.340;5.980;2023-08-06T04:46:47;98080.72;;;16.72;67.78
64713;BME280;51140;45.340;5.980;2023-08-06T04:49:12;98071.81;;;16.85;69.78
64713;BME280;51140;45.340;5.980;2023-08-06T04:51:37;98075.13;;;16.59;67.83
64713;BME280;51140;45.340;5.980;2023-08-06T04:54:03;98071.50;;;16.64;68.41
64713;BME280;51140;45.340;5.980;2023-08-06T04:56:29;98088.47;;;16.37;70.81
64713;BME280;51140;45.340;5.980;2023-08-06T04:58:54;98101.53;;;16.03;71.25
64713;BME280;51140;45.340;5.980;2023-08-06T05:01:20;98095.75;;;16.23;71.24
64713;BME280;51140;45.340;5.980;2023-08-06T05:03:47;98104.19;;;16.52;69.50
64713;BME280;51140;45.340;5.980;2023-08-06T05:06:12;98111.97;;;16.54;71.53
64713;BME280;51140;45.340;5.980;2023-08-06T05:08:38;98111.16;;;16.53;72.88
64713;BME280;51140;45.340;5.980;2023-08-06T05:11:03;98123.91;;;16.34;73.31
64713;BME280;51140;45.340;5.980;2023-08-06T05:13:28;98121.06;;;16.89;73.11
64713;BME280;51140;45.340;5.980;2023-08-06T05:15:54;98134.00;;;16.95;71.20
64713;BME280;51140;45.340;5.980;2023-08-06T05:18:20;98130.31;;;15.97;74.35
64713;BME280;51140;45.340;5.980;2023-08-06T05:20:45;98131.28;;;16.15;75.03
64713;BME280;51140;45.340;5.980;2023-08-06T05:23:10;98133.25;;;16.23;73.76
64713;BME280;51140;45.340;5.980;2023-08-06T05:25:36;98124.97;;;16.33;75.10
64713;BME280;51140;45.340;5.980;2023-08-06T05:28:02;98131.34;;;16.73;74.08
64713;BME280;51140;45.340;5.980;2023-08-06T05:30:28;98135.47;;;16.57;76.36
64713;BME280;51140;45.340;5.980;2023-08-06T05:32:53;98127.78;;;16.64;76.74
64713;BME280;51140;45.340;5.980;2023-08-06T05:35:19;98131.09;;;16.12;80.91
64713;BME280;51140;45.340;5.980;2023-08-06T05:37:44;98128.28;;;15.35;82.97
64713;BME280;51140;45.340;5.980;2023-08-06T05:40:09;98129.69;;;15.73;78.83
64713;BME280;51140;45.340;5.980;2023-08-06T05:42:35;98138.56;;;15.41;79.53
64713;BME280;51140;45.340;5.980;2023-08-06T05:45:00;98139.22;;;15.66;73.75
64713;BME280;51140;45.340;5.980;2023-08-06T05:47:25;98134.84;;;15.97;73.30
64713;BME280;51140;45.340;5.980;2023-08-06T05:49:51;98137.91;;;16.18;79.24
64713;BME280;51140;45.340;5.980;2023-08-06T05:52:16;98147.06;;;16.03;72.13
64713;BME280;51140;45.340;5.980;2023-08-06T05:54:41;98157.63;;;16.22;68.48
64713;BME280;51140;45.340;5.980;2023-08-06T05:57:07;98170.13;;;16.76;70.30
64713;BME280;51140;45.340;5.980;2023-08-06T05:59:32;98175.53;;;16.98;72.71
64713;BME280;51140;45.340;5.980;2023-08-06T06:01:58;98182.72;;;17.11;74.75
64713;BME280;51140;45.340;5.980;2023-08-06T06:04:23;98178.09;;;17.03;73.68
64713;BME280;51140;45.340;5.980;2023-08-06T06:06:48;98172.81;;;16.76;74.43
64713;BME280;51140;45.340;5.980;2023-08-06T06:09:14;98182.47;;;16.99;76.97
64713;BME280;51140;45.340;5.980;2023-08-06T06:11:39;98195.81;;;16.90;73.47
64713;BME280;51140;45.340;5.980;2023-08-06T06:14:04;98196.41;;;16.51;74.32
64713;BME280;51140;45.340;5.980;2023-08-06T06:16:30;98190.22;;;16.65;75.99
64713;BME280;51140;45.340;5.980;2023-08-06T06:18:55;98203.91;;;16.99;74.88
64713;BME280;51140;45.340;5.980;2023-08-06T06:21:23;98202.59;;;17.32;73.23
64713;BME280;51140;45.340;5.980;2023-08-06T06:23:48;98207.06;;;17.14;74.54
64713;BME280;51140;45.340;5.980;2023-08-06T06:26:13;98211.59;;;17.58;75.20
64713;BME280;51140;45.340;5.980;2023-08-06T06:28:39;98214.19;;;17.63;73.87
64713;BME280;51140;45.340;5.980;2023-08-06T06:31:04;98205.50;;;17.66;74.96
64713;BME280;51140;45.340;5.980;2023-08-06T06:33:30;98211.78;;;17.93;76.25
64713;BME280;51140;45.340;5.980;2023-08-06T06:35:55;98221.97;;;18.13;74.03
64713;BME280;51140;45.340;5.980;2023-08-06T06:38:20;98218.63;;;18.07;72.29
64713;BME280;51140;45.340;5.980;2023-08-06T06:40:55;98216.97;;;17.14;74.58
64713;BME280;51140;45.340;5.980;2023-08-06T06:43:21;98210.84;;;16.78;75.74
64713;BME280;51140;45.340;5.980;2023-08-06T06:45:46;98215.75;;;16.98;78.05
64713;BME280;51140;45.340;5.980;2023-08-06T06:48:12;98219.41;;;17.02;73.43
64713;BME280;51140;45.340;5.980;2023-08-06T06:50:37;98224.91;;;17.41;73.30
64713;BME280;51140;45.340;5.980;2023-08-06T06:53:04;98224.56;;;17.56;73.55
64713;BME280;51140;45.340;5.980;2023-08-06T06:55:29;98235.28;;;17.87;71.96
64713;BME280;51140;45.340;5.980;2023-08-06T06:57:55;98244.06;;;17.70;71.32
64713;BME280;51140;45.340;5.980;2023-08-06T07:00:20;98254.13;;;17.21;72.63
64713;BME280;51140;45.340;5.980;2023-08-06T07:02:45;98258.69;;;17.42;73.96
64713;BME280;51140;45.340;5.980;2023-08-06T07:05:11;98262.31;;;17.60;76.10
64713;BME280;51140;45.340;5.980;2023-08-06T07:07:36;98250.09;;;17.32;75.89
64713;BME280;51140;45.340;5.980;2023-08-06T07:10:02;98248.91;;;17.24;76.68
64713;BME280;51140;45.340;5.980;2023-08-06T07:12:28;98255.69;;;17.22;76.20
64713;BME280;51140;45.340;5.980;2023-08-06T07:14:53;98248.22;;;17.32;72.41
64713;BME280;51140;45.340;5.980;2023-08-06T07:17:18;98246.22;;;17.60;73.28
64713;BME280;51140;45.340;5.980;2023-08-06T07:19:44;98254.66;;;17.76;74.64
64713;BME280;51140;45.340;5.980;2023-08-06T07:22:09;98254.59;;;17.89;71.98
64713;BME280;51140;45.340;5.980;2023-08-06T07:24:34;98265.25;;;17.72;71.27
64713;BME280;51140;45.340;5.980;2023-08-06T07:27:00;98263.53;;;17.18;70.20
64713;BME280;51140;45.340;5.980;2023-08-06T07:29:26;98269.41;;;17.20;71.85
64713;BME280;51140;45.340;5.980;2023-08-06T07:31:51;98266.59;;;17.03;69.03
64713;BME280;51140;45.340;5.980;2023-08-06T07:34:17;98279.75;;;16.77;65.54
64713;BME280;51140;45.340;5.980;2023-08-06T07:36:46;98279.59;;;16.96;63.31
64713;BME280;51140;45.340;5.980;2023-08-06T07:39:11;98284.75;;;17.06;63.65
64713;BME280;51140;45.340;5.980;2023-08-06T07:41:37;98279.69;;;17.04;63.24
64713;BME280;51140;45.340;5.980;2023-08-06T07:44:02;98294.63;;;16.97;61.92
64713;BME280;51140;45.340;5.980;2023-08-06T07:46:27;98311.59;;;17.06;60.39
64713;BME280;51140;45.340;5.980;2023-08-06T07:48:53;98310.69;;;16.97;59.60
64713;BME280;51140;45.340;5.980;2023-08-06T07:51:18;98374.56;;;16.81;56.01
64713;BME280;51140;45.340;5.980;2023-08-06T07:53:44;98334.28;;;17.22;56.85
64713;BME280;51140;45.340;5.980;2023-08-06T07:56:10;98291.38;;;17.44;58.16
64713;BME280;51140;45.340;5.980;2023-08-06T07:58:35;98336.13;;;17.93;56.94
64713;BME280;51140;45.340;5.980;2023-08-06T08:01:01;98353.19;;;17.75;55.34
64713;BME280;51140;45.340;5.980;2023-08-06T08:03:26;98278.16;;;18.32;59.54
64713;BME280;51140;45.340;5.980;2023-08-06T08:05:54;98332.09;;;18.74;56.65
64713;BME280;51140;45.340;5.980;2023-08-06T08:08:21;98438.44;;;18.80;51.97
64713;BME280;51140;45.340;5.980;2023-08-06T08:10:46;98444.06;;;20.09;50.15
64713;BME280;51140;45.340;5.980;2023-08-06T08:13:12;98666.75;;;21.77;43.19
64713;BME280;51140;45.340;5.980;2023-08-06T08:15:38;98719.59;;;22.70;41.56
64713;BME280;51140;45.340;5.980;2023-08-06T08:18:03;98674.03;;;22.72;42.31
64713;BME280;51140;45.340;5.980;2023-08-06T08:20:29;98703.78;;;22.22;41.18
64713;BME280;51140;45.340;5.980;2023-08-06T08:22:58;98672.75;;;21.44;42.35
64713;BME280;51140;45.340;5.980;2023-08-06T08:25:23;98547.91;;;20.75;45.37
64713;BME280;51140;45.340;5.980;2023-08-06T08:27:49;98539.50;;;20.68;45.57
64713;BME280;51140;45.340;5.980;2023-08-06T08:30:14;98514.81;;;20.32;45.95
64713;BME280;51140;45.340;5.980;2023-08-06T08:32:39;98463.41;;;19.94;47.31
64713;BME280;51140;45.340;5.980;2023-08-06T08:35:05;98470.22;;;20.17;47.34
64713;BME280;51140;45.340;5.980;2023-08-06T08:37:30;98424.22;;;20.48;49.47
64713;BME280;51140;45.340;5.980;2023-08-06T08:39:55;98484.00;;;20.07;46.95
64713;BME280;51140;45.340;5.980;2023-08-06T08:42:21;98427.13;;;20.09;47.96
64713;BME280;51140;45.340;5.980;2023-08-06T08:44:47;98450.41;;;19.96;48.33
64713;BME280;51140;45.340;5.980;2023-08-06T08:47:13;98436.63;;;19.80;48.25
64713;BME280;51140;45.340;5.980;2023-08-06T08:49:42;98334.91;;;19.77;51.09
64713;BME280;51140;45.340;5.980;2023-08-06T08:52:10;98484.00;;;19.90;47.06
64713;BME280;51140;45.340;5.980;2023-08-06T08:54:38;98443.72;;;19.51;47.43
64713;BME280;51140;45.340;5.980;2023-08-06T08:57:04;98456.78;;;19.35;48.36
64713;BME280;51140;45.340;5.980;2023-08-06T08:59:32;98404.88;;;19.26;48.92
64713;BME280;51140;45.340;5.980;2023-08-06T09:01:58;98357.88;;;19.66;50.72
64713;BME280;51140;45.340;5.980;2023-08-06T09:04:26;98302.91;;;19.50;51.71
64713;BME280;51140;45.340;5.980;2023-08-06T09:06:54;98291.84;;;19.52;52.24
64713;BME280;51140;45.340;5.980;2023-08-06T09:09:33;98241.78;;;19.33;54.47
64713;BME280;51140;45.340;5.980;2023-08-06T09:12:01;98281.06;;;19.26;52.46
64713;BME280;51140;45.340;5.980;2023-08-06T09:14:29;98298.16;;;19.64;51.44
64713;BME280;51140;45.340;5.980;2023-08-06T09:16:54;98403.66;;;19.66;49.17
64713;BME280;51140;45.340;5.980;2023-08-06T09:19:20;98322.41;;;19.47;51.80
64713;BME280;51140;45.340;5.980;2023-08-06T09:21:45;98498.78;;;19.36;46.78
64713;BME280;51140;45.340;5.980;2023-08-06T09:24:14;98305.94;;;19.57;54.73
64713;BME280;51140;45.340;5.980;2023-08-06T09:26:41;98189.81;;;20.43;56.63
64713;BME280;51140;45.340;5.980;2023-08-06T09:29:08;98410.66;;;21.12;48.55
64713;BME280;51140;45.340;5.980;2023-08-06T09:31:48;98541.00;;;21.88;45.06
64713;BME280;51140;45.340;5.980;2023-08-06T09:34:20;98541.72;;;21.97;44.91
64713;BME280;51140;45.340;5.980;2023-08-06T09:36:51;98615.63;;;21.25;42.98
64713;BME280;51140;45.340;5.980;2023-08-06T09:39:18;98567.16;;;21.29;44.25
64713;BME280;51140;45.340;5.980;2023-08-06T09:41:45;98492.63;;;21.36;45.90
64713;BME280;51140;45.340;5.980;2023-08-06T09:44:18;98505.28;;;20.98;46.05
64713;BME280;51140;45.340;5.980;2023-08-06T09:46:53;98403.81;;;21.14;48.89
64713;BME280;51140;45.340;5.980;2023-08-06T09:49:21;98440.56;;;21.27;47.06
64713;BME280;51140;45.340;5.980;2023-08-06T09:51:47;98425.72;;;21.42;47.83
64713;BME280;51140;45.340;5.980;2023-08-06T09:54:16;98465.22;;;21.46;46.46
64713;BME280;51140;45.340;5.980;2023-08-06T09:56:42;98467.34;;;21.41;48.07
64713;BME280;51140;45.340;5.980;2023-08-06T09:59:08;98486.72;;;21.43;45.93
64713;BME280;51140;45.340;5.980;2023-08-06T10:01:35;98510.91;;;20.84;46.64
64713;BME280;51140;45.340;5.980;2023-08-06T10:04:05;98549.78;;;20.75;44.53
64713;BME280;51140;45.340;5.980;2023-08-06T10:06:34;98526.03;;;20.68;44.88
64713;BME280;51140;45.340;5.980;2023-08-06T10:09:03;98443.00;;;20.74;46.61
64713;BME280;51140;45.340;5.980;2023-08-06T10:11:29;98461.03;;;20.35;46.62
64713;BME280;51140;45.340;5.980;2023-08-06T10:14:02;98361.13;;;20.40;49.94
64713;BME280;51140;45.340;5.980;2023-08-06T10:16:29;98428.38;;;20.37;47.32
64713;BME280;51140;45.340;5.980;2023-08-06T10:18:55;98347.00;;;20.26;50.63
64713;BME280;51140;45.340;5.980;2023-08-06T10:21:23;98383.00;;;20.22;49.03
64713;BME280;51140;45.340;5.980;2023-08-06T10:23:54;98427.56;;;20.11;48.30
64713;BME280;51140;45.340;5.980;2023-08-06T10:26:20;98392.56;;;20.02;48.24
64713;BME280;51140;45.340;5.980;2023-08-06T10:28:45;98410.91;;;20.43;48.11
64713;BME280;51140;45.340;5.980;2023-08-06T10:31:10;98391.84;;;21.44;48.73
64713;BME280;51140;45.340;5.980;2023-08-06T10:33:43;98407.75;;;20.79;48.30
64713;BME280;51140;45.340;5.980;2023-08-06T10:36:09;98344.78;;;20.37;50.87
64713;BME280;51140;45.340;5.980;2023-08-06T10:38:36;98301.53;;;20.25;51.68
64713;BME280;51140;45.340;5.980;2023-08-06T10:41:27;98267.75;;;20.19;53.00
64713;BME280;51140;45.340;5.980;2023-08-06T10:44:08;98293.50;;;19.99;52.95
64713;BME280;51140;45.340;5.980;2023-08-06T10:46:34;98262.59;;;19.96;53.69
64713;BME280;51140;45.340;5.980;2023-08-06T10:49:01;98236.56;;;20.00;55.00
64713;BME280;51140;45.340;5.980;2023-08-06T10:51:26;98294.19;;;20.34;54.02
64713;BME280;51140;45.340;5.980;2023-08-06T10:53:53;98366.75;;;20.56;51.49
64713;BME280;51140;45.340;5.980;2023-08-06T10:56:23;98343.38;;;20.69;52.38
64713;BME280;51140;45.340;5.980;2023-08-06T10:58:50;98433.88;;;20.58;50.15
64713;BME280;51140;45.340;5.980;2023-08-06T11:01:16;98345.31;;;20.60;52.20
64713;BME280;51140;45.340;5.980;2023-08-06T11:03:43;98404.28;;;20.32;50.32
64713;BME280;51140;45.340;5.980;2023-08-06T11:06:09;98324.66;;;20.34;53.06
64713;BME280;51140;45.340;5.980;2023-08-06T11:08:40;98404.59;;;19.96;50.14
64713;BME280;51140;45.340;5.980;2023-08-06T11:11:13;98407.06;;;20.44;50.33
64713;BME280;51140;45.340;5.980;2023-08-06T11:13:43;98469.91;;;20.36;48.02
64713;BME280;51140;45.340;5.980;2023-08-06T11:16:09;98425.06;;;19.97;49.66
64713;BME280;51140;45.340;5.980;2023-08-06T11:18:35;98463.59;;;20.06;47.87
64713;BME280;51140;45.340;5.980;2023-08-06T11:21:01;98455.13;;;20.50;47.59
64713;BME280;51140;45.340;5.980;2023-08-06T11:23:28;98380.53;;;20.92;50.34
64713;BME280;51140;45.340;5.980;2023-08-06T11:25:54;98383.94;;;20.81;49.85
64713;BME280;51140;45.340;5.980;2023-08-06T11:28:20;98396.94;;;20.41;49.61
64713;BME280;51140;45.340;5.980;2023-08-06T11:30:49;98393.75;;;20.47;48.77
64713;BME280;51140;45.340;5.980;2023-08-06T11:33:20;98359.59;;;20.89;49.85
64713;BME280;51140;45.340;5.980;2023-08-06T11:35:47;98376.97;;;21.59;49.71
64713;BME280;51140;45.340;5.980;2023-08-06T11:38:13;98510.16;;;21.89;45.60
64713;BME280;51140;45.340;5.980;2023-08-06T11:40:39;98444.06;;;21.98;48.30
64713;BME280;51140;45.340;5.980;2023-08-06T11:43:05;98477.97;;;22.16;46.27
64713;BME280;51140;45.340;5.980;2023-08-06T11:45:31;98495.28;;;22.15;46.12
64713;BME280;51140;45.340;5.980;2023-08-06T11:47:59;98590.34;;;22.67;43.15
64713;BME280;51140;45.340;5.980;2023-08-06T11:50:25;98564.50;;;22.16;44.38
64713;BME280;51140;45.340;5.980;2023-08-06T11:52:59;98575.31;;;22.37;44.95
64713;BME280;51140;45.340;5.980;2023-08-06T11:55:26;98673.09;;;22.18;41.19
64713;BME280;51140;45.340;5.980;2023-08-06T11:57:53;98512.44;;;22.40;46.26
64713;BME280;51140;45.340;5.980;2023-08-06T12:00:19;98630.00;;;22.43;41.42
64713;BME280;51140;45.340;5.980;2023-08-06T12:02:48;98693.78;;;22.44;40.34
64713;BME280;51140;45.340;5.980;2023-08-06T12:05:18;98599.84;;;22.73;43.31
64713;BME280;51140;45.340;5.980;2023-08-06T12:07:50;98658.28;;;21.49;42.90
64713;BME280;51140;45.340;5.980;2023-08-06T12:10:16;98653.66;;;21.49;41.38
64713;BME280;51140;45.340;5.980;2023-08-06T12:12:42;98601.59;;;21.40;44.16
64713;BME280;51140;45.340;5.980;2023-08-06T12:15:09;98617.31;;;21.38;43.33
64713;BME280;51140;45.340;5.980;2023-08-06T12:17:35;98605.69;;;21.46;42.38
64713;BME280;51140;45.340;5.980;2023-08-06T12:20:03;98527.28;;;21.34;44.64
64713;BME280;51140;45.340;5.980;2023-08-06T12:22:29;98604.50;;;21.18;42.55
64713;BME280;51140;45.340;5.980;2023-08-06T12:25:00;98547.75;;;20.80;44.46
64713;BME280;51140;45.340;5.980;2023-08-06T12:27:25;98563.91;;;20.97;44.50
64713;BME280;51140;45.340;5.980;2023-08-06T12:29:51;98507.94;;;21.24;45.13
64713;BME280;51140;45.340;5.980;2023-08-06T12:32:16;98488.00;;;21.07;47.28
64713;BME280;51140;45.340;5.980;2023-08-06T12:34:42;98556.28;;;20.99;43.47
64713;BME280;51140;45.340;5.980;2023-08-06T12:37:08;98522.66;;;20.88;44.69
64713;BME280;51140;45.340;5.980;2023-08-06T12:39:34;98561.84;;;20.94;43.75
64713;BME280;51140;45.340;5.980;2023-08-06T12:42:04;98506.53;;;21.18;45.67
64713;BME280;51140;45.340;5.980;2023-08-06T12:44:30;98422.78;;;21.26;47.86
64713;BME280;51140;45.340;5.980;2023-08-06T12:46:56;98408.56;;;21.38;47.42
64713;BME280;51140;45.340;5.980;2023-08-06T12:49:22;98495.44;;;21.48;45.19
64713;BME280;51140;45.340;5.980;2023-08-06T12:51:51;98427.78;;;21.16;47.29
64713;BME280;51140;45.340;5.980;2023-08-06T12:54:17;98489.38;;;21.22;44.63
64713;BME280;51140;45.340;5.980;2023-08-06T12:56:43;98440.34;;;21.12;47.61
64713;BME280;51140;45.340;5.980;2023-08-06T12:59:08;98432.09;;;21.08;46.27
64713;BME280;51140;45.340;5.980;2023-08-06T13:01:34;98418.72;;;21.41;46.83